WMKKWMKJ

Guest
Details From WMKK - Kuala Lumpur Intl - Sepang
To WMKJ - Johor Bahru Sultan Ismail
Flight Number -
Tags decoded
Created
Modified
Stats Distance 158 nm / 292 km
Max Altitude 0 ft / 0 m
Waypoints 6
Social Downloads 6
Likes 0
Share VATSIM

Download

Looking for another format? Having issues loading an existing format? Contact us
Advertisement - Login to hide

Notes

Requested: WMKK RUMID BATAR A464 TOPOR WMKJ

Route

WMKK RUMID BATAR A464 TOPOR WMKJ

ID Type Via Altitude Latitude Longitude Leg Dist Tot Dist Heading (true) Name
O WMKK APT - 0 ft / 0 m 2.74558˚ 101.70991˚ - 0 nm - Kuala Lumpur Intl - Sepang
RUMID FIX - 0 ft / 0 m 2.33833˚ 101.60694˚ 25 nm 25 nm 194° / 194° -
BATAR FIX - 0 ft / 0 m 2.16667˚ 102.08694˚ 30 nm 55 nm 110° / 110° -
OGAKO FIX A464 (AWY-LO) 0 ft / 0 m 1.98056˚ 102.43556˚ 23 nm 79 nm 118° / 118° -
TOPOR FIX A464 (AWY-HI) 0 ft / 0 m 1.73667˚ 102.89167˚ 31 nm 110 nm 118° / 118° -
O WMKJ APT - 0 ft / 0 m 1.64131˚ 103.66962˚ 47 nm 157 nm 97° / 97° Johor Bahru Sultan Ismail

Altitude Profile

Advertisement - Login to hide

WMKK

Details ICAO WMKK (KUL)
Name Kuala Lumpur Intl - Sepang
Region Malaysia (Peninsular Malaysia)
Timezone Asia/Kuala_Lumpur (UTC+8.0)
Stats Elevation 70 ft / 21 m (AMSL)
Location 2.745578° 101.709913°
Runways 2
Magnetic Variation 0.000° E

METAR

WMKK 180700Z VRB04KT 9999 FEW018 BKN280 33/22 Q1009 NOSIG

Decode

TAF

TAF WMKK 180500Z 1806/1912 07010KT 9999 FEW017CB SCT140 BKN280 PROB30 TEMPO 1807/1811 3000 TSRA FEW015CB SCT018

Decode

Departure Runways

ID Width Length Bearing (true) Bearing (mag) Surface Threshold Offset Overrun Length
14L 197 ft / 60 m 13,577 ft / 4,138 m 146.13° 146.13° Asphalt 500 ft / 152 m 0 ft / 0 m
14R 197 ft / 60 m 13,337 ft / 4,065 m 146.22° 146.22° Asphalt 500 ft / 152 m 0 ft / 0 m
32L 197 ft / 60 m 13,337 ft / 4,065 m 326.22° 326.22° Asphalt 500 ft / 152 m 0 ft / 0 m
32R 197 ft / 60 m 13,577 ft / 4,138 m 326.13° 326.13° Asphalt 500 ft / 152 m 0 ft / 0 m

WMKJ

Details ICAO WMKJ (JHB)
Name Johor Bahru Sultan Ismail
Region Malaysia (Peninsular Malaysia)
Timezone Asia/Kuala_Lumpur (UTC+8.0)
Stats Elevation 135 ft / 41 m (AMSL)
Location 1.641307° 103.669618°
Runways 1
Magnetic Variation 0.194° E

METAR

WMKJ 180700Z 02010KT 320V120 9999 SCT018 BKN280 30/24 Q1010

Decode

TAF

Not found

Destination Runways

ID Width Length Bearing (true) Bearing (mag) Surface Threshold Offset Overrun Length
16 150 ft / 46 m 11,014 ft / 3,357 m 159.95° 159.76° Asphalt 0 ft / 0 m 200 ft / 61 m
34 150 ft / 46 m 11,014 ft / 3,357 m 339.95° 339.76° Asphalt 0 ft / 0 m 200 ft / 61 m

Approach Navaids

Runway Type Ident Frequency Range Bearing (true) Bearing (mag) Slope Elevation
16 Localiser IJB 109.90 MHz 18 nm / 33 km 159.86° 159.66° - 133 ft / 41 m (AMSL)
16 Glidescope IJB 109.90 MHz 10 nm / 19 km 159.95° 159.75° 3.00° 135 ft / 41 m (AMSL)
16 DME IJB 109.90 MHz 18 nm / 33 km - - - 135 ft / 41 m (AMSL)

Popular Alternatives